Time;durP1;ratioP1;P1;durP2;ratioP2;P2;SDS_P1;SDS_P2;PMS_P1;PMS_P2;Temp;Humidity;BMP_temperature;BMP_pressure;BME280_temperature;BME280_humidity;BME280_pressure;Samples;Min_cycle;Max_cycle;Signal;HPM_P1;HPM_P2
2021/12/22 00:00:06;;;;;;;6.53;3.50;;;;;;;17.51;23.26;98753.16;5091772;28;20039;-65
2021/12/22 00:02:33;;;;;;;6.05;3.30;;;;;;;17.49;23.06;98759.72;5089223;28;20028;-65
2021/12/22 00:04:59;;;;;;;5.55;3.63;;;;;;;17.42;23.28;98754.28;5088412;28;20226;-65
2021/12/22 00:07:24;;;;;;;4.90;3.03;;;;;;;17.38;23.49;98758.31;5088774;28;20028;-64
2021/12/22 00:09:50;;;;;;;5.95;2.88;;;;;;;17.34;23.31;98747.16;5088820;28;20041;-66
2021/12/22 00:12:15;;;;;;;3.78;2.80;;;;;;;17.31;23.23;98749.41;5093434;28;20206;-65
2021/12/22 00:14:41;;;;;;;5.85;2.88;;;;;;;17.30;23.40;98750.41;5109496;28;20039;-65
2021/12/22 00:17:06;;;;;;;4.97;3.45;;;;;;;17.28;23.14;98742.53;5109285;28;20051;-65
2021/12/22 00:19:32;;;;;;;5.18;3.30;;;;;;;17.26;23.09;98743.75;5109036;28;20028;-65
2021/12/22 00:21:58;;;;;;;4.68;2.95;;;;;;;17.23;23.14;98745.78;5088687;28;20056;-65
2021/12/22 00:24:23;;;;;;;5.35;3.03;;;;;;;17.18;23.50;98755.38;5097385;28;20225;-66
2021/12/22 00:26:49;;;;;;;4.63;2.90;;;;;;;17.15;23.41;98750.38;5108064;28;20032;-66
2021/12/22 00:29:16;;;;;;;4.75;2.47;;;;;;;17.12;23.31;98753.44;5109123;28;20048;-63
2021/12/22 00:31:55;;;;;;;3.65;2.53;;;;;;;17.13;23.72;98749.75;5094406;28;20056;-64
2021/12/22 00:34:21;;;;;;;4.93;2.78;;;;;;;17.16;23.84;98758.22;5088890;28;20055;-64
2021/12/22 00:36:46;;;;;;;5.97;2.83;;;;;;;17.22;24.22;98760.16;5088719;28;20073;-63
2021/12/22 00:39:12;;;;;;;5.13;3.17;;;;;;;17.26;24.08;98766.00;5094587;28;20030;-61
2021/12/22 00:41:38;;;;;;;4.93;2.75;;;;;;;17.29;24.40;98764.78;5108941;28;20016;-64
2021/12/22 00:44:05;;;;;;;4.55;2.78;;;;;;;17.33;24.43;98760.75;5094723;28;20044;-61
2021/12/22 00:46:31;;;;;;;4.00;2.30;;;;;;;17.34;24.37;98767.75;5088666;28;20042;-63
2021/12/22 00:48:56;;;;;;;4.97;2.83;;;;;;;17.33;24.34;98771.44;5088290;28;20028;-65
2021/12/22 00:51:22;;;;;;;3.40;2.03;;;;;;;17.33;24.30;98769.56;5088558;28;20145;-64
2021/12/22 00:53:47;;;;;;;3.75;2.40;;;;;;;17.33;24.60;98768.75;5088443;28;20182;-63
2021/12/22 00:58:48;;;;;;;4.78;2.47;;;;;;;17.33;24.38;98774.09;5859031;22;20471;-66
2021/12/22 01:01:14;;;;;;;3.78;2.70;;;;;;;17.36;24.56;98779.91;5031626;28;20037;-65
2021/12/22 01:03:39;;;;;;;9.38;3.00;;;;;;;17.36;24.57;98773.72;5033298;28;20036;-75
2021/12/22 01:06:05;;;;;;;5.03;2.60;;;;;;;17.37;24.44;98778.06;5034065;28;20545;-74
2021/12/22 01:08:31;;;;;;;4.70;2.53;;;;;;;17.35;24.45;98764.88;5034037;28;20399;-75
2021/12/22 01:10:57;;;;;;;6.00;2.63;;;;;;;17.34;24.52;98781.94;5033866;28;20168;-74
2021/12/22 01:13:22;;;;;;;4.53;2.85;;;;;;;17.34;24.69;98778.44;5033838;28;20041;-74
2021/12/22 01:15:48;;;;;;;3.47;2.42;;;;;;;17.34;24.49;98781.94;5033737;28;20033;-73
2021/12/22 01:18:25;;;;;;;3.40;2.17;;;;;;;17.34;24.51;98786.47;5033343;28;20160;-73
2021/12/22 01:21:01;;;;;;;3.88;2.42;;;;;;;17.30;24.52;98775.28;5034159;28;20079;-74
2021/12/22 01:23:33;;;;;;;5.50;2.25;;;;;;;17.31;24.85;98782.28;5033650;28;20033;-75
2021/12/22 01:25:58;;;;;;;3.55;2.38;;;;;;;17.32;24.65;98780.47;5033152;28;20030;-73
2021/12/22 01:28:26;;;;;;;3.85;2.15;;;;;;;17.29;24.58;98788.84;5023021;28;20091;-79
2021/12/22 01:30:52;;;;;;;4.38;2.35;;;;;;;17.30;24.63;98790.50;5013715;28;20057;-75
2021/12/22 01:33:19;;;;;;;5.63;2.40;;;;;;;17.30;24.83;98788.66;5015991;28;20068;-76
2021/12/22 01:35:45;;;;;;;4.88;2.03;;;;;;;17.31;24.78;98787.63;5014217;28;20041;-74
2021/12/22 01:38:11;;;;;;;16.55;2.20;;;;;;;17.32;24.82;98797.31;5014405;28;20052;-74
2021/12/22 01:40:41;;;;;;;3.80;2.10;;;;;;;17.35;24.85;98782.78;5013995;28;20053;-74
2021/12/22 01:43:08;;;;;;;3.13;1.85;;;;;;;17.35;25.17;98791.63;5014149;28;20132;-74
2021/12/22 01:51:54;;;;;;;3.97;2.08;;;;;;;17.33;25.30;98782.13;5013070;28;20036;-75
2021/12/22 01:54:19;;;;;;;3.20;1.92;;;;;;;17.33;25.13;98782.94;5016194;28;20424;-75
2021/12/22 01:56:46;;;;;;;2.83;1.60;;;;;;;17.33;25.34;98769.56;5031164;28;20029;-75
2021/12/22 01:59:12;;;;;;;3.67;2.08;;;;;;;17.36;25.44;98769.22;5031014;28;20060;-76
2021/12/22 02:01:38;;;;;;;3.63;1.90;;;;;;;17.35;25.12;98766.75;5030929;28;20408;-77
2021/12/22 02:04:10;;;;;;;2.28;1.73;;;;;;;17.42;25.19;98777.53;5031127;28;20021;-75
2021/12/22 02:06:38;;;;;;;4.43;1.70;;;;;;;17.41;25.47;98768.66;5031712;28;20036;-76
2021/12/22 02:09:04;;;;;;;2.70;1.48;;;;;;;17.41;25.74;98765.16;5030896;28;20030;-76
2021/12/22 02:11:30;;;;;;;2.90;1.58;;;;;;;17.43;25.92;98771.13;5030943;28;20195;-76
2021/12/22 02:14:02;;;;;;;2.45;1.50;;;;;;;17.44;25.89;98772.78;5030951;28;20127;-76
2021/12/22 02:16:31;;;;;;;2.40;1.50;;;;;;;17.41;25.49;98767.84;5031191;28;20029;-77
2021/12/22 02:18:59;;;;;;;2.17;1.50;;;;;;;17.39;25.72;98773.34;5014521;28;20053;-77
2021/12/22 02:21:29;;;;;;;4.68;1.67;;;;;;;17.43;25.63;98781.84;5012654;28;20033;-77
2021/12/22 02:23:55;;;;;;;3.20;1.65;;;;;;;17.42;25.81;98774.84;5012328;28;20065;-74
2021/12/22 02:27:03;;;;;;;3.47;1.50;;;;;;;17.42;25.90;98781.00;5012812;28;20132;-74
2021/12/22 02:29:33;;;;;;;2.83;2.08;;;;;;;17.43;25.93;98784.50;5022765;28;20071;-75
2021/12/22 02:32:06;;;;;;;2.30;1.52;;;;;;;17.42;26.02;98775.66;5028110;28;20021;-75
2021/12/22 02:34:42;;;;;;;2.15;1.33;;;;;;;17.41;26.23;98765.97;5027591;28;20067;-74
2021/12/22 02:37:14;;;;;;;2.50;1.52;;;;;;;17.42;26.23;98777.53;5030842;28;20036;-75
2021/12/22 02:39:58;;;;;;;3.08;1.70;;;;;;;17.41;26.24;98773.19;5015665;28;20499;-74
2021/12/22 02:42:31;;;;;;;2.85;1.70;;;;;;;17.42;26.13;98766.81;5012587;28;20033;-77
2021/12/22 02:45:06;;;;;;;2.67;1.70;;;;;;;17.42;25.97;98769.50;5012002;28;20034;-76
2021/12/22 02:47:32;;;;;;;3.20;1.65;;;;;;;17.44;25.97;98772.78;5010532;28;20487;-77
2021/12/22 02:49:57;;;;;;;3.05;1.55;;;;;;;17.44;26.13;98773.66;5011130;28;20021;-77
2021/12/22 02:52:29;;;;;;;3.10;1.73;;;;;;;17.43;26.15;98768.47;5011879;28;20067;-75
2021/12/22 02:54:56;;;;;;;2.10;1.40;;;;;;;17.43;26.15;98763.13;5016310;28;20029;-76
2021/12/22 02:57:33;;;;;;;1.92;1.23;;;;;;;17.43;25.95;98761.28;5030756;28;20029;-75
2021/12/22 03:05:20;;;;;;;2.10;1.25;;;;;;;17.43;26.07;98755.09;5011972;28;20472;-77
2021/12/22 03:07:47;;;;;;;3.25;1.35;;;;;;;17.43;25.73;98761.28;5011622;28;20032;-76
2021/12/22 03:10:17;;;;;;;2.85;1.70;;;;;;;17.43;26.17;98760.44;5011462;28;20018;-75
2021/12/22 03:12:51;;;;;;;2.33;1.50;;;;;;;17.44;25.84;98759.44;5026987;28;20061;-76
2021/12/22 03:15:17;;;;;;;2.70;1.70;;;;;;;17.44;25.93;98759.44;5030169;28;20029;-76
2021/12/22 03:17:43;;;;;;;4.10;1.48;;;;;;;17.45;26.25;98753.06;5030109;28;20033;-76
2021/12/22 03:20:11;;;;;;;3.83;2.10;;;;;;;17.44;26.35;98757.59;5029901;28;20465;-76
2021/12/22 03:22:37;;;;;;;3.75;1.98;;;;;;;17.44;26.21;98759.44;5030402;28;20033;-76
2021/12/22 03:25:14;;;;;;;2.78;1.63;;;;;;;17.43;25.95;98765.78;5029807;28;20033;-76
2021/12/22 03:27:40;;;;;;;2.95;1.60;;;;;;;17.43;26.21;98760.44;5023454;28;20033;-76
2021/12/22 03:30:07;;;;;;;3.55;1.80;;;;;;;17.46;26.43;98757.41;5018040;28;20178;-75
2021/12/22 03:32:32;;;;;;;3.75;2.13;;;;;;;17.42;26.24;98759.63;5030223;28;20029;-75
2021/12/22 03:34:58;;;;;;;4.18;1.92;;;;;;;17.43;26.37;98758.59;5030108;28;20511;-75
2021/12/22 03:37:24;;;;;;;3.58;2.22;;;;;;;17.44;26.51;98767.44;5029774;28;20030;-76
2021/12/22 03:39:49;;;;;;;3.60;2.00;;;;;;;17.46;26.75;98762.75;5011598;28;20087;-76
2021/12/22 03:42:15;;;;;;;3.55;1.90;;;;;;;17.46;26.26;98760.91;5011548;28;20022;-78
2021/12/22 03:44:41;;;;;;;2.60;1.63;;;;;;;17.46;26.56;98768.94;5011363;28;20605;-77
2021/12/22 03:47:07;;;;;;;3.95;2.08;;;;;;;17.47;26.65;98778.63;5011497;28;20037;-78
2021/12/22 03:49:32;;;;;;;4.90;2.33;;;;;;;17.48;26.54;98782.13;5011245;28;20113;-77
2021/12/22 03:51:58;;;;;;;5.55;1.90;;;;;;;17.48;26.38;98784.78;5011491;28;20030;-78
2021/12/22 03:54:24;;;;;;;3.88;2.17;;;;;;;17.44;26.82;98779.00;5011541;28;20060;-78
2021/12/22 03:56:50;;;;;;;3.22;1.83;;;;;;;17.43;26.61;98777.31;5029552;28;20112;-79
2021/12/22 03:59:16;;;;;;;4.03;1.98;;;;;;;17.45;26.80;98780.66;5011472;28;20053;-77
2021/12/22 04:01:42;;;;;;;3.50;1.90;;;;;;;17.44;26.80;98776.31;5015358;28;20030;-76
2021/12/22 04:04:13;;;;;;;3.03;1.90;;;;;;;17.45;26.57;98782.47;5015445;28;20033;-79
2021/12/22 04:06:39;;;;;;;;;;;;;;;17.33;26.93;98790.97;5016141;28;20384;-75
2021/12/22 04:09:05;;;;;;;10.70;1.58;;;;;;;17.37;27.02;98786.91;5015601;28;20336;-75
2021/12/22 04:11:31;;;;;;;2.55;1.73;;;;;;;17.43;26.76;98792.53;5015568;28;20041;-74
2021/12/22 04:13:56;;;;;;;2.65;1.38;;;;;;;17.40;26.88;98804.44;5015586;28;20508;-75
2021/12/22 04:16:22;;;;;;;2.13;1.52;;;;;;;17.42;26.91;98805.09;5003956;28;20033;-75
2021/12/22 04:18:48;;;;;;;5.13;1.80;;;;;;;17.44;27.03;98804.88;5035255;28;20072;-74
2021/12/22 04:21:13;;;;;;;2.50;1.42;;;;;;;17.43;27.21;98808.56;5034952;28;20128;-74
2021/12/22 04:23:39;;;;;;;3.05;1.63;;;;;;;17.43;27.34;98813.91;5035258;28;20041;-75
2021/12/22 04:26:05;;;;;;;2.25;1.38;;;;;;;17.42;27.17;98806.94;5035425;28;20121;-76
2021/12/22 04:28:30;;;;;;;3.72;1.85;;;;;;;17.43;27.13;98814.78;5021856;28;20037;-76
2021/12/22 04:30:56;;;;;;;2.08;1.38;;;;;;;17.42;27.20;98802.41;5014991;28;20030;-76
2021/12/22 04:33:22;;;;;;;2.08;1.42;;;;;;;17.42;27.01;98806.94;5015253;28;20049;-76
2021/12/22 04:35:49;;;;;;;1.85;1.13;;;;;;;17.42;27.29;98812.28;5013579;28;20032;-76
2021/12/22 04:38:17;;;;;;;2.63;1.30;;;;;;;17.40;27.29;98804.44;5015034;28;20366;-76
2021/12/22 04:40:43;;;;;;;2.95;1.80;;;;;;;17.41;27.23;98805.28;5014789;28;20030;-78
2021/12/22 04:43:09;;;;;;;2.03;1.30;;;;;;;17.41;27.30;98805.28;5015030;28;20051;-79
2021/12/22 04:45:35;;;;;;;2.95;1.75;;;;;;;17.39;27.30;98794.75;5014745;28;20633;-78
2021/12/22 04:48:01;;;;;;;2.63;1.50;;;;;;;17.39;27.39;98802.78;5014788;28;20068;-77
2021/12/22 04:50:27;;;;;;;2.63;1.35;;;;;;;17.39;27.37;98814.31;5014314;28;20026;-77
2021/12/22 04:52:59;;;;;;;2.60;1.52;;;;;;;17.39;27.48;98802.78;5014339;28;20551;-78
2021/12/22 04:55:26;;;;;;;2.75;1.85;;;;;;;17.37;27.11;98808.31;5005249;28;20037;-77
2021/12/22 04:57:57;;;;;;;2.70;1.52;;;;;;;17.36;26.91;98809.31;5034316;28;20104;-77
2021/12/22 05:00:26;;;;;;;1.92;1.40;;;;;;;17.35;27.19;98801.50;5014765;28;20064;-74
2021/12/22 05:02:52;;;;;;;2.53;1.67;;;;;;;17.34;27.05;98797.16;5014227;28;20065;-75
2021/12/22 05:05:18;;;;;;;2.58;1.55;;;;;;;17.32;27.08;98797.31;5014390;28;20398;-75
2021/12/22 05:07:47;;;;;;;5.78;1.63;;;;;;;17.32;27.19;98797.31;5014026;28;20029;-76
2021/12/22 05:10:13;;;;;;;2.28;1.50;;;;;;;17.31;27.01;98795.66;5013813;28;20116;-77
2021/12/22 05:12:39;;;;;;;2.70;1.60;;;;;;;17.30;27.02;98795.84;5013720;28;20061;-77
2021/12/22 05:15:05;;;;;;;2.40;1.73;;;;;;;17.31;27.19;98794.84;4996299;28;20068;-78
2021/12/22 05:20:09;;;;;;;2.50;1.55;;;;;;;17.30;27.11;98793.19;5013640;28;20436;-78
2021/12/22 05:22:34;;;;;;;2.33;1.40;;;;;;;17.29;27.09;98796.88;5013931;28;20033;-77
2021/12/22 05:25:02;;;;;;;2.28;1.60;;;;;;;17.29;27.20;98797.69;5013648;28;20405;-76
2021/12/22 05:27:29;;;;;;;3.17;1.65;;;;;;;17.27;27.01;98799.72;5013840;28;20029;-76
2021/12/22 05:29:54;;;;;;;3.22;1.98;;;;;;;17.28;27.07;98789.84;5013692;28;20022;-76
2021/12/22 05:32:23;;;;;;;1.60;1.02;;;;;;;17.28;27.36;98801.38;5013895;28;20050;-73
2021/12/22 05:34:49;;;;;;;2.28;1.52;;;;;;;17.27;27.33;98796.22;5013351;28;20457;-74
2021/12/22 05:37:14;;;;;;;2.58;1.52;;;;;;;17.26;27.21;98802.56;5013911;28;20109;-75
2021/12/22 05:39:40;;;;;;;2.60;1.50;;;;;;;17.26;27.20;98807.91;5013500;28;20046;-74
2021/12/22 05:42:06;;;;;;;3.05;1.65;;;;;;;17.26;27.00;98808.75;5013709;28;20034;-74
2021/12/22 05:44:31;;;;;;;2.58;1.60;;;;;;;17.26;27.15;98816.78;5020964;28;20025;-74
2021/12/22 05:46:57;;;;;;;3.38;1.60;;;;;;;17.25;26.89;98807.09;5033408;28;20044;-76
2021/12/22 05:49:22;;;;;;;3.00;1.20;;;;;;;17.24;26.94;98810.78;5032993;28;20100;-75
2021/12/22 05:51:48;;;;;;;2.13;1.55;;;;;;;17.23;27.06;98807.25;5033245;28;20071;-76
2021/12/22 05:54:13;;;;;;;2.33;1.23;;;;;;;17.21;27.26;98809.28;5033185;28;20034;-76
2021/12/22 05:56:39;;;;;;;2.75;1.70;;;;;;;17.23;26.93;98804.59;5033110;28;20033;-75
2021/12/22 05:59:04;;;;;;;2.28;1.40;;;;;;;17.22;27.17;98807.47;5032750;28;20057;-76
2021/12/22 06:01:30;;;;;;;2.95;1.80;;;;;;;17.22;27.11;98808.28;5032785;28;20116;-76
2021/12/22 06:03:57;;;;;;;2.30;1.33;;;;;;;17.24;26.98;98805.44;5015047;28;20029;-75
2021/12/22 06:06:22;;;;;;;2.67;1.25;;;;;;;17.22;27.42;98802.13;5033120;28;20395;-76
2021/12/22 06:08:48;;;;;;;2.40;1.63;;;;;;;17.23;27.36;98806.44;5032682;28;20033;-75
2021/12/22 06:11:13;;;;;;;2.67;1.48;;;;;;;17.24;27.54;98822.28;5033349;28;20056;-76
2021/12/22 06:13:39;;;;;;;2.22;1.50;;;;;;;17.22;27.52;98812.81;5032875;28;20558;-76
2021/12/22 06:16:05;;;;;;;4.57;1.55;;;;;;;17.25;27.08;98817.78;5032768;28;20029;-75
2021/12/22 06:18:31;;;;;;;2.72;1.73;;;;;;;17.20;27.33;98812.16;5032498;28;20076;-75
2021/12/22 06:20:58;;;;;;;2.53;1.55;;;;;;;17.21;27.63;98811.16;5033079;28;20388;-75
2021/12/22 06:23:23;;;;;;;2.65;1.65;;;;;;;17.19;27.23;98810.50;5032187;28;20061;-76
2021/12/22 06:25:49;;;;;;;2.60;1.80;;;;;;;17.19;27.58;98813.16;5032755;28;20080;-76
2021/12/22 06:28:14;;;;;;;3.05;1.40;;;;;;;17.19;27.45;98813.16;5032732;28;20120;-74
2021/12/22 06:30:40;;;;;;;3.47;1.95;;;;;;;17.18;27.38;98811.50;5032646;28;20116;-78
2021/12/22 06:33:05;;;;;;;2.33;1.48;;;;;;;17.16;27.51;98809.03;5032677;28;20033;-76
2021/12/22 06:35:31;;;;;;;2.83;1.63;;;;;;;17.15;27.23;98820.72;5032832;28;20029;-76
2021/12/22 06:37:56;;;;;;;3.10;1.90;;;;;;;17.14;27.57;98819.06;5032484;28;20195;-75
2021/12/22 06:40:22;;;;;;;2.45;1.77;;;;;;;17.15;27.41;98823.41;5014659;28;20377;-76
2021/12/22 06:42:48;;;;;;;3.10;1.77;;;;;;;17.16;27.58;98824.22;5032108;28;20045;-76
2021/12/22 06:45:14;;;;;;;2.30;1.40;;;;;;;17.17;27.93;98834.75;5032121;28;20511;-76
2021/12/22 06:47:40;;;;;;;2.78;1.83;;;;;;;17.20;27.59;98836.22;5032739;28;20369;-76
2021/12/22 06:50:07;;;;;;;1.88;1.63;;;;;;;17.19;27.71;98837.22;5031990;28;20491;-77
2021/12/22 06:52:33;;;;;;;3.83;1.80;;;;;;;17.16;28.04;98838.44;5014540;28;20052;-75
2021/12/22 06:54:59;;;;;;;2.90;1.75;;;;;;;17.15;27.83;98833.25;5032094;28;20025;-75
2021/12/22 06:57:26;;;;;;;2.58;1.58;;;;;;;17.14;27.76;98842.28;5014295;28;20087;-76
2021/12/22 06:59:52;;;;;;;3.10;1.77;;;;;;;17.18;27.46;98848.94;5031941;28;20372;-76
2021/12/22 07:02:18;;;;;;;3.33;1.88;;;;;;;17.19;27.50;98847.91;5031973;28;20117;-77
2021/12/22 07:04:43;;;;;;;2.40;1.60;;;;;;;17.20;27.77;98846.91;5012266;28;20065;-77
2021/12/22 07:07:09;;;;;;;2.55;1.52;;;;;;;17.19;27.59;98853.25;5012245;28;20404;-76
2021/12/22 07:09:34;;;;;;;2.25;1.48;;;;;;;17.16;27.24;98854.47;5012475;28;20064;-75
2021/12/22 07:12:00;;;;;;;2.55;1.63;;;;;;;17.16;27.46;98856.28;5012173;28;20484;-78
2021/12/22 07:14:26;;;;;;;2.55;1.60;;;;;;;17.15;27.52;98843.94;5012034;28;20124;-79
2021/12/22 07:16:51;;;;;;;2.53;1.52;;;;;;;17.16;27.54;98850.94;4994436;28;20120;-75
2021/12/22 07:19:17;;;;;;;2.40;1.45;;;;;;;17.16;27.84;98845.59;5012084;28;20385;-77
2021/12/22 07:21:44;;;;;;;2.13;1.25;;;;;;;17.17;27.73;98841.91;5012371;28;20029;-77
2021/12/22 07:24:10;;;;;;;2.53;1.48;;;;;;;17.19;27.87;98847.91;5028070;28;20492;-74
2021/12/22 07:26:37;;;;;;;2.85;1.40;;;;;;;17.19;27.82;98854.09;5031683;28;20132;-76
2021/12/22 07:29:04;;;;;;;3.63;1.92;;;;;;;17.19;27.62;98861.28;5032074;28;20040;-76
2021/12/22 07:31:30;;;;;;;3.28;1.40;;;;;;;17.18;27.66;98859.63;5031859;28;20033;-76
2021/12/22 07:34:14;;;;;;;2.45;1.30;;;;;;;17.16;27.64;98857.13;5026162;28;20101;-77
2021/12/22 07:36:54;;;;;;;3.75;1.60;;;;;;;17.14;27.38;98858.31;5015867;28;20040;-77
2021/12/22 07:39:20;;;;;;;3.65;1.40;;;;;;;17.13;27.39;98857.50;5015546;28;20473;-76
2021/12/22 07:41:46;;;;;;;3.05;1.60;;;;;;;17.14;27.74;98859.16;5028849;28;20060;-76
2021/12/22 07:44:11;;;;;;;2.25;1.55;;;;;;;17.15;27.58;98855.47;5035396;28;20033;-76
2021/12/22 07:46:37;;;;;;;5.00;1.67;;;;;;;17.16;27.31;98856.28;5035096;28;20107;-76
2021/12/22 07:49:02;;;;;;;3.10;1.85;;;;;;;17.15;27.40;98857.31;5035404;28;20492;-77
2021/12/22 07:51:28;;;;;;;2.58;1.70;;;;;;;17.15;27.71;98854.63;5017076;28;20029;-79
2021/12/22 07:53:53;;;;;;;3.45;1.73;;;;;;;17.16;27.24;98856.28;5017402;28;20049;-78
2021/12/22 07:56:19;;;;;;;5.03;1.73;;;;;;;17.20;27.46;98854.94;5035119;28;20033;-78
2021/12/22 07:58:44;;;;;;;2.42;1.45;;;;;;;17.21;27.23;98852.06;5034548;28;20052;-79
2021/12/22 08:01:10;;;;;;;2.50;1.42;;;;;;;17.18;27.53;98851.59;5034670;28;20179;-79
2021/12/22 08:03:35;;;;;;;2.35;1.45;;;;;;;17.18;27.56;98862.28;5035036;28;20037;-77
2021/12/22 08:06:01;;;;;;;3.13;1.90;;;;;;;17.21;27.57;98856.59;5020393;28;20045;-78
2021/12/22 08:08:27;;;;;;;2.95;1.50;;;;;;;17.23;27.34;98857.25;5015934;28;20116;-76
2021/12/22 08:10:52;;;;;;;2.97;1.90;;;;;;;17.20;27.45;98861.13;5030579;28;20060;-77
2021/12/22 08:13:18;;;;;;;2.58;1.45;;;;;;;17.21;27.24;98856.59;5034955;28;20041;-77
2021/12/22 08:15:44;;;;;;;4.32;2.00;;;;;;;17.21;27.10;98860.09;5034944;28;20059;-76
2021/12/22 08:18:11;;;;;;;3.33;2.17;;;;;;;17.20;26.70;98862.94;5034815;28;20033;-74
2021/12/22 08:20:36;;;;;;;2.60;1.50;;;;;;;17.19;27.13;98871.97;5034504;28;20077;-73
2021/12/22 08:23:02;;;;;;;2.65;1.80;;;;;;;17.19;27.16;98864.81;5035459;28;20055;-73
2021/12/22 08:25:28;;;;;;;4.35;2.17;;;;;;;17.19;27.04;98871.97;5035026;28;20036;-75
2021/12/22 08:27:53;;;;;;;3.47;1.70;;;;;;;17.21;27.34;98872.63;5035226;28;20399;-76
2021/12/22 08:30:20;;;;;;;2.45;1.60;;;;;;;17.21;27.68;98875.31;5034229;28;20156;-76
2021/12/22 08:32:45;;;;;;;2.28;1.65;;;;;;;17.22;27.89;98869.75;5033113;28;20124;-74
2021/12/22 08:35:13;;;;;;;2.08;1.33;;;;;;;17.23;27.59;98878.63;5026289;28;21409;-74
2021/12/22 08:40:24;;;;;;;3.10;1.85;;;;;;;17.20;27.88;98866.47;5022336;28;20444;-73
2021/12/22 08:42:51;;;;;;;4.30;1.63;;;;;;;17.21;27.68;98865.44;5016065;28;20735;-74
2021/12/22 08:45:17;;;;;;;3.72;2.10;;;;;;;17.22;27.43;98866.28;5019305;28;20116;-74
2021/12/22 08:47:44;;;;;;;3.17;2.20;;;;;;;17.24;27.71;98865.06;5018096;28;20056;-75
2021/12/22 08:50:11;;;;;;;2.72;1.98;;;;;;;17.23;27.69;98857.25;5019878;28;20029;-75
2021/12/22 08:52:37;;;;;;;2.83;1.48;;;;;;;17.23;27.79;98865.25;5020476;28;20041;-74
2021/12/22 08:55:03;;;;;;;2.50;1.60;;;;;;;17.23;27.59;98854.56;5002965;28;20036;-73
2021/12/22 08:57:29;;;;;;;3.75;1.98;;;;;;;17.23;27.74;98857.25;5016393;28;20033;-78
2021/12/22 08:59:55;;;;;;;4.72;2.05;;;;;;;17.25;27.88;98860.56;5013696;28;20057;-75
2021/12/22 09:02:21;;;;;;;3.95;1.58;;;;;;;17.26;27.68;98867.59;5025577;28;20041;-73
2021/12/22 09:04:47;;;;;;;2.72;1.48;;;;;;;17.26;27.97;98861.38;5017237;28;20033;-74
2021/12/22 09:07:13;;;;;;;3.08;1.73;;;;;;;17.24;27.84;98864.25;5016621;28;20091;-75
2021/12/22 09:09:38;;;;;;;3.17;1.98;;;;;;;17.25;27.92;98865.91;5013339;28;20037;-74
2021/12/22 09:12:06;;;;;;;2.60;1.40;;;;;;;17.24;27.95;98859.72;5019459;28;20021;-75
2021/12/22 09:14:32;;;;;;;1.75;1.30;;;;;;;17.25;28.17;98860.56;5029346;28;20041;-75
2021/12/22 09:16:58;;;;;;;7.07;2.38;;;;;;;17.25;27.64;98865.91;5016682;28;20029;-73
2021/12/22 09:19:23;;;;;;;5.22;3.05;;;;;;;17.27;27.30;98871.06;5026995;28;20044;-72
2021/12/22 09:21:51;;;;;;;4.25;3.05;;;;;;;17.26;27.36;98862.25;5021316;28;20087;-71
2021/12/22 09:24:17;;;;;;;5.53;3.40;;;;;;;17.18;27.43;98863.13;5019808;28;20029;-73
2021/12/22 09:26:42;;;;;;;4.78;3.10;;;;;;;17.14;27.01;98864.50;5024092;28;20514;-74
2021/12/22 09:29:08;;;;;;;5.65;3.88;;;;;;;17.12;26.81;98865.69;5028390;28;20109;-68
2021/12/22 09:31:34;;;;;;;6.15;3.83;;;;;;;17.03;26.95;98860.41;5030388;28;20156;-67
2021/12/22 09:33:59;;;;;;;8.23;3.78;;;;;;;16.99;27.11;98861.78;5030103;28;20044;-69
2021/12/22 09:36:25;;;;;;;9.52;4.85;;;;;;;16.97;26.80;98866.50;5031175;28;20056;-72
2021/12/22 09:38:51;;;;;;;8.23;3.95;;;;;;;16.96;27.24;98870.16;5022435;28;20037;-74
2021/12/22 09:41:17;;;;;;;5.25;3.50;;;;;;;16.93;27.28;98863.28;5030470;28;20396;-73
2021/12/22 09:43:42;;;;;;;6.25;3.65;;;;;;;16.93;26.84;98867.81;5025071;28;20500;-72
2021/12/22 09:46:12;;;;;;;7.75;4.32;;;;;;;16.93;26.77;98868.63;5014807;28;20547;-74
2021/12/22 09:53:51;;;;;;;11.45;5.38;;;;;;;16.90;26.51;98870.84;5019763;28;20132;-81
2021/12/22 09:56:21;;;;;;;16.45;6.55;;;;;;;16.89;26.81;98863.81;5022557;28;20112;-77
2021/12/22 09:58:48;;;;;;;13.40;5.32;;;;;;;16.90;26.81;98869.00;5019963;28;20469;-66
2021/12/22 10:01:19;;;;;;;11.45;5.00;;;;;;;16.87;26.77;98866.69;5023209;28;20029;-72
2021/12/22 10:03:45;;;;;;;9.55;5.55;;;;;;;16.87;26.39;98879.19;5031001;28;20091;-74
2021/12/22 10:06:10;;;;;;;14.18;5.13;;;;;;;16.89;26.68;98874.53;5031345;28;20033;-73
2021/12/22 10:08:39;;;;;;;11.73;5.60;;;;;;;16.88;26.59;98886.22;5024998;28;20033;-70
2021/12/22 10:11:09;;;;;;;11.63;4.80;;;;;;;16.88;26.56;98870.19;5026248;28;20396;-74
2021/12/22 10:13:37;;;;;;;10.82;4.88;;;;;;;16.89;26.73;98874.53;5029505;28;20117;-70
2021/12/22 10:16:11;;;;;;;9.32;4.63;;;;;;;16.90;26.75;98873.50;5028114;28;20040;-73
2021/12/22 10:18:37;;;;;;;9.40;6.15;;;;;;;16.90;26.71;98873.50;5029361;28;20033;-70
2021/12/22 10:21:19;;;;;;;14.13;6.22;;;;;;;16.89;26.97;98863.81;5025393;28;20468;-72
2021/12/22 10:23:50;;;;;;;16.42;6.63;;;;;;;16.89;26.80;98871.84;5027893;28;20068;-71
2021/12/22 10:26:23;;;;;;;19.20;6.13;;;;;;;16.85;27.11;98874.06;5032205;28;20432;-70
2021/12/22 10:28:55;;;;;;;9.98;5.57;;;;;;;16.84;26.75;98877.72;5018466;28;20446;-74
2021/12/22 10:31:37;;;;;;;11.35;5.43;;;;;;;16.82;26.96;98865.56;5023193;28;20029;-71
2021/12/22 10:53:47;;;;;;;15.05;4.25;;;;;;;16.03;26.71;98861.97;5172076;27;20218;-72
2021/12/22 10:56:30;;;;;;;10.65;3.65;;;;;;;16.11;27.30;98869.94;5157175;27;20094;-73
2021/12/22 10:59:12;;;;;;;8.27;4.53;;;;;;;16.17;27.53;98874.59;5151186;27;20113;-72
2021/12/22 11:02:07;;;;;;;6.88;3.53;;;;;;;16.22;27.42;98874.06;5165445;27;20061;-71
2021/12/22 11:04:34;;;;;;;9.35;2.88;;;;;;;16.26;27.04;98872.72;5150870;27;20035;-71
2021/12/22 11:07:15;;;;;;;7.35;3.30;;;;;;;16.31;27.23;98877.53;5150206;27;20034;-71
2021/12/22 11:09:41;;;;;;;8.60;3.90;;;;;;;16.32;26.62;98893.38;5149922;27;20046;-72
2021/12/22 11:12:08;;;;;;;6.32;3.28;;;;;;;16.34;26.72;98893.22;5150391;27;20453;-71
2021/12/22 11:14:47;;;;;;;9.48;3.13;;;;;;;16.37;26.58;98894.69;5148558;27;20035;-71
2021/12/22 11:17:14;;;;;;;7.47;3.42;;;;;;;16.41;26.79;98902.16;5151042;27;20508;-71
2021/12/22 11:20:05;;;;;;;6.18;3.20;;;;;;;16.41;26.48;98891.50;5150310;27;20484;-71
2021/12/22 11:25:17;;;;;;;5.28;2.75;;;;;;;16.44;26.15;98907.16;5149460;27;20438;-71
2021/12/22 11:27:43;;;;;;;4.13;2.67;;;;;;;16.42;26.05;98905.69;5150377;27;20030;-70
2021/12/22 11:30:12;;;;;;;4.38;3.03;;;;;;;16.44;26.35;98925.84;5148672;27;20038;-71
2021/12/22 11:32:38;;;;;;;6.60;3.10;;;;;;;16.45;26.16;98914.19;5150730;27;20018;-71
2021/12/22 11:35:08;;;;;;;4.35;2.83;;;;;;;16.51;25.84;98920.66;5150603;27;20043;-72
2021/12/22 11:37:34;;;;;;;4.13;2.78;;;;;;;16.53;25.58;98921.31;5150731;27;20039;-71
2021/12/22 11:40:01;;;;;;;4.43;2.83;;;;;;;16.52;25.56;98922.31;5149403;27;20454;-71
2021/12/22 11:42:32;;;;;;;4.80;2.85;;;;;;;16.48;25.69;98926.34;5149437;27;20035;-69
2021/12/22 11:45:22;;;;;;;6.22;2.92;;;;;;;16.45;25.93;98927.53;5150243;27;20027;-71
2021/12/22 11:47:53;;;;;;;5.72;2.53;;;;;;;16.43;25.74;98924.19;5137734;27;20501;-71
2021/12/22 11:50:25;;;;;;;4.95;2.78;;;;;;;16.46;25.52;98929.19;5150167;27;20517;-71
2021/12/22 11:53:03;;;;;;;6.40;2.42;;;;;;;16.45;25.46;98924.84;5149107;27;20138;-72
2021/12/22 11:55:44;;;;;;;5.35;2.80;;;;;;;16.46;25.28;98929.19;5148841;27;20030;-73
2021/12/22 11:58:20;;;;;;;4.47;2.67;;;;;;;16.42;25.49;98930.53;5149024;27;20438;-71
2021/12/22 12:01:12;;;;;;;5.10;3.00;;;;;;;16.44;25.89;98936.53;5149739;27;20450;-71
2021/12/22 12:03:44;;;;;;;5.25;2.85;;;;;;;16.42;25.64;98938.53;5143890;27;20035;-70
2021/12/22 12:06:21;;;;;;;5.63;3.20;;;;;;;16.41;25.75;98952.91;5136011;27;20039;-71
2021/12/22 12:08:56;;;;;;;5.13;3.03;;;;;;;16.40;25.75;98945.91;5135057;27;20087;-71
2021/12/22 12:11:37;;;;;;;4.78;2.58;;;;;;;16.40;25.71;98956.56;5134838;27;20076;-71
2021/12/22 12:14:09;;;;;;;5.55;2.50;;;;;;;16.40;25.75;98955.75;5135367;27;20027;-71
2021/12/22 12:22:30;;;;;;;4.35;2.58;;;;;;;16.41;25.57;98958.25;5135945;27;20080;-72
2021/12/22 12:25:09;;;;;;;4.13;2.70;;;;;;;16.37;25.52;98950.75;5134620;27;20062;-72
2021/12/22 12:27:52;;;;;;;3.85;2.17;;;;;;;16.33;25.63;98960.97;5134488;27;20061;-70
2021/12/22 12:30:37;;;;;;;3.85;2.60;;;;;;;16.34;25.36;98965.28;5135442;27;20110;-69